Time;durP1;ratioP1;P1;durP2;ratioP2;P2;SDS_P1;SDS_P2;PMS_P1;PMS_P2;Temp;Humidity;BMP_temperature;BMP_pressure;BME280_temperature;BME280_humidity;BME280_pressure;Samples;Min_cycle;Max_cycle;Signal;HPM_P1;HPM_P2
2023/03/03 00:00:21;;;;;;;51.20;25.07;;;3.70;80.90;;;;;;5051824;28;20462;-74
2023/03/03 00:02:47;;;;;;;60.67;26.27;;;3.60;81.10;;;;;;5050378;28;20565;-74
2023/03/03 00:05:14;;;;;;;65.80;26.60;;;3.50;81.40;;;;;;5043434;28;20176;-72
2023/03/03 00:07:43;;;;;;;50.33;24.87;;;3.50;81.80;;;;;;5046570;28;20763;-75
2023/03/03 00:10:10;;;;;;;54.53;26.10;;;3.40;81.90;;;;;;5048108;28;20486;-75
2023/03/03 00:12:46;;;;;;;63.27;26.70;;;3.40;81.90;;;;;;5049377;28;20909;-74
2023/03/03 00:15:21;;;;;;;58.23;25.57;;;3.50;82.20;;;;;;5049743;28;20418;-75
2023/03/03 00:17:46;;;;;;;59.07;26.30;;;3.50;82.40;;;;;;5052285;28;20458;-73
2023/03/03 00:20:39;;;;;;;58.30;26.47;;;3.40;82.40;;;;;;5038064;28;20450;-73
2023/03/03 00:23:16;;;;;;;59.60;25.70;;;3.30;82.50;;;;;;5051321;28;20176;-73
2023/03/03 00:25:44;;;;;;;60.60;26.93;;;3.20;82.70;;;;;;5050878;28;20415;-71
2023/03/03 00:28:21;;;;;;;58.23;24.70;;;3.20;83.00;;;;;;5046589;28;20470;-74
2023/03/03 00:30:47;;;;;;;62.50;27.20;;;3.20;83.30;;;;;;5026971;28;20837;-72
2023/03/03 00:33:26;;;;;;;65.90;27.10;;;3.20;83.30;;;;;;5045849;28;20419;-75
2023/03/03 00:35:52;;;;;;;65.17;26.83;;;3.10;83.40;;;;;;5048681;28;20609;-75
2023/03/03 00:38:18;;;;;;;57.20;25.57;;;3.10;83.60;;;;;;5049538;28;20475;-73
2023/03/03 00:40:44;;;;;;;61.77;28.20;;;3.00;83.80;;;;;;5051304;28;20317;-75
2023/03/03 00:43:21;;;;;;;53.97;26.70;;;3.00;84.10;;;;;;5050431;28;20203;-72
2023/03/03 00:45:50;;;;;;;62.80;27.13;;;3.00;84.40;;;;;;5050912;28;20410;-74
2023/03/03 00:48:35;;;;;;;59.80;26.30;;;2.90;84.30;;;;;;5042877;28;20474;-73
2023/03/03 00:51:20;;;;;;;63.73;28.67;;;2.90;84.60;;;;;;5046654;28;20952;-73
2023/03/03 00:53:45;;;;;;;59.90;26.40;;;3.00;84.60;;;;;;5044383;28;20536;-74
2023/03/03 00:56:11;;;;;;;60.80;25.00;;;2.90;84.40;;;;;;5025219;28;20530;-75
2023/03/03 00:58:36;;;;;;;62.53;28.50;;;2.90;84.40;;;;;;5032270;28;20214;-76
2023/03/03 01:01:02;;;;;;;69.60;27.30;;;2.90;84.40;;;;;;5043233;28;20213;-76
2023/03/03 01:03:27;;;;;;;60.40;26.03;;;2.90;84.60;;;;;;5049958;28;20181;-75
2023/03/03 01:05:54;;;;;;;55.93;25.50;;;2.80;84.60;;;;;;5049460;28;20242;-73
2023/03/03 01:08:21;;;;;;;63.37;25.80;;;2.80;84.60;;;;;;5047681;28;20180;-75
2023/03/03 01:10:51;;;;;;;64.13;27.63;;;2.80;84.70;;;;;;5048675;28;20446;-75
2023/03/03 01:13:19;;;;;;;70.80;30.70;;;2.70;84.90;;;;;;5048946;28;20492;-75
2023/03/03 01:15:45;;;;;;;56.97;26.10;;;2.70;85.00;;;;;;5047932;28;20427;-75
2023/03/03 01:18:11;;;;;;;56.70;26.67;;;2.70;85.00;;;;;;5044742;28;20466;-75
2023/03/03 01:20:37;;;;;;;68.80;28.33;;;2.70;85.00;;;;;;5045270;28;20931;-74
2023/03/03 01:23:03;;;;;;;63.67;28.17;;;2.70;85.00;;;;;;5047088;28;20430;-75
2023/03/03 01:25:29;;;;;;;61.50;27.43;;;2.70;84.90;;;;;;5051099;28;20476;-74
2023/03/03 01:27:55;;;;;;;61.43;26.77;;;2.60;85.20;;;;;;5058926;28;20228;-75
2023/03/03 01:30:21;;;;;;;62.80;26.60;;;2.60;85.30;;;;;;5050183;28;20181;-76
2023/03/03 01:32:47;;;;;;;64.13;28.50;;;2.60;85.50;;;;;;5050431;28;20442;-77
2023/03/03 01:35:13;;;;;;;56.83;27.00;;;2.60;85.50;;;;;;5048751;28;20446;-76
2023/03/03 01:37:39;;;;;;;64.37;27.37;;;2.60;85.60;;;;;;5027399;28;20228;-75
2023/03/03 01:40:06;;;;;;;62.37;27.63;;;2.50;85.60;;;;;;5045733;28;20969;-76
2023/03/03 01:42:32;;;;;;;65.22;26.88;;;2.50;85.60;;;;;;5046070;28;20191;-76
2023/03/03 01:45:22;;;;;;;61.40;26.93;;;2.60;85.60;;;;;;5051376;28;20188;-76
2023/03/03 01:47:59;;;;;;;75.17;29.17;;;2.60;85.60;;;;;;5047673;28;20201;-75
2023/03/03 01:50:47;;;;;;;63.63;27.80;;;2.50;85.30;;;;;;5048681;28;20953;-75
2023/03/03 01:53:18;;;;;;;67.90;28.70;;;2.50;85.50;;;;;;5026267;28;20481;-75
2023/03/03 01:55:46;;;;;;;64.97;28.70;;;2.40;85.30;;;;;;5046494;28;20430;-75
2023/03/03 01:58:25;;;;;;;72.13;29.90;;;2.40;85.50;;;;;;5043612;28;20204;-75
2023/03/03 02:00:56;;;;;;;67.20;27.07;;;2.30;85.50;;;;;;5029587;28;20467;-74
2023/03/03 02:03:23;;;;;;;65.20;27.83;;;2.30;85.70;;;;;;5052280;28;20415;-74
2023/03/03 02:05:50;;;;;;;69.13;29.60;;;2.30;85.90;;;;;;5052146;28;20901;-72
2023/03/03 02:08:19;;;;;;;72.57;30.13;;;2.30;86.00;;;;;;5047698;28;21251;-75
2023/03/03 02:10:46;;;;;;;66.40;29.10;;;2.30;86.00;;;;;;5050358;28;20431;-74
2023/03/03 02:13:12;;;;;;;72.43;31.20;;;2.30;85.90;;;;;;5048133;28;20423;-74
2023/03/03 02:15:38;;;;;;;77.27;29.63;;;2.20;86.20;;;;;;5048760;28;20438;-74
2023/03/03 02:18:13;;;;;;;84.17;30.17;;;2.20;86.30;;;;;;5029775;28;20458;-75
2023/03/03 02:21:04;;;;;;;74.07;28.30;;;2.20;86.20;;;;;;5044863;28;20577;-74
2023/03/03 02:23:49;;;;;;;65.00;27.63;;;2.20;86.30;;;;;;5049670;28;20754;-73
2023/03/03 02:26:17;;;;;;;65.47;28.20;;;2.10;86.50;;;;;;5044547;28;20236;-73
2023/03/03 02:28:43;;;;;;;60.50;27.73;;;2.20;86.50;;;;;;5047539;28;20564;-73
2023/03/03 02:31:12;;;;;;;75.90;29.17;;;2.10;86.30;;;;;;5047878;28;20427;-75
2023/03/03 02:33:39;;;;;;;68.43;27.80;;;2.10;86.60;;;;;;5025666;28;20228;-74
2023/03/03 02:36:05;;;;;;;64.67;28.90;;;2.00;86.50;;;;;;5046558;28;20445;-74
2023/03/03 02:38:41;;;;;;;78.53;28.77;;;2.10;86.90;;;;;;5044931;28;20412;-74
2023/03/03 02:41:10;;;;;;;68.93;27.30;;;2.20;86.80;;;;;;5047577;28;20199;-73
2023/03/03 02:43:40;;;;;;;68.50;28.30;;;2.10;86.30;;;;;;5041893;28;20439;-75
2023/03/03 02:46:06;;;;;;;63.17;25.80;;;2.20;86.50;;;;;;5044561;28;21119;-75
2023/03/03 02:48:31;;;;;;;59.53;27.27;;;2.20;86.30;;;;;;5050211;28;20476;-76
2023/03/03 02:50:57;;;;;;;71.27;29.00;;;2.20;86.30;;;;;;5051316;28;20180;-73
2023/03/03 02:53:22;;;;;;;66.30;27.37;;;2.20;86.30;;;;;;5048863;28;20184;-73
2023/03/03 02:55:48;;;;;;;59.37;27.50;;;2.20;86.30;;;;;;5049684;28;20271;-74
2023/03/03 02:58:14;;;;;;;68.60;27.80;;;2.30;86.30;;;;;;5048082;28;20204;-74
2023/03/03 03:00:39;;;;;;;68.40;28.60;;;2.30;86.20;;;;;;5050932;28;20200;-74
2023/03/03 03:03:05;;;;;;;64.20;27.57;;;2.40;85.90;;;;;;5048183;28;20185;-74
2023/03/03 03:05:30;;;;;;;73.90;29.57;;;2.40;85.90;;;;;;5048470;28;20260;-76
2023/03/03 03:07:56;;;;;;;65.20;27.03;;;2.50;85.70;;;;;;5044023;28;20299;-75
2023/03/03 03:10:21;;;;;;;66.90;27.37;;;2.60;85.60;;;;;;5050902;28;20616;-75
2023/03/03 03:12:47;;;;;;;62.10;26.70;;;2.60;85.30;;;;;;5042593;28;20208;-74
2023/03/03 03:15:14;;;;;;;64.13;28.70;;;2.60;85.30;;;;;;5051243;28;20181;-77
2023/03/03 03:17:40;;;;;;;59.33;26.17;;;2.60;85.20;;;;;;5059815;28;20220;-75
2023/03/03 03:20:06;;;;;;;58.73;25.30;;;2.70;85.00;;;;;;5048428;28;20521;-73
2023/03/03 03:22:32;;;;;;;65.50;28.90;;;2.70;84.60;;;;;;5055696;28;20181;-75
2023/03/03 03:24:58;;;;;;;66.57;26.87;;;2.70;84.70;;;;;;5061404;28;20433;-75
2023/03/03 03:27:23;;;;;;;61.90;27.33;;;2.80;84.70;;;;;;5055149;28;20533;-74
2023/03/03 03:29:49;;;;;;;65.70;28.30;;;2.90;84.60;;;;;;5059985;28;20615;-73
2023/03/03 03:32:14;;;;;;;65.90;28.00;;;2.90;84.40;;;;;;5057479;28;20189;-74
2023/03/03 03:34:40;;;;;;;65.20;26.90;;;3.00;84.30;;;;;;5050990;28;20198;-75
2023/03/03 03:37:08;;;;;;;62.03;26.50;;;3.00;84.30;;;;;;5044474;28;20223;-75
2023/03/03 03:39:34;;;;;;;65.07;26.70;;;3.10;83.80;;;;;;5050196;28;20643;-75
2023/03/03 03:42:00;;;;;;;57.97;25.40;;;3.20;83.70;;;;;;5050802;28;20419;-74
2023/03/03 03:44:25;;;;;;;73.77;27.90;;;3.20;83.60;;;;;;5050652;28;20453;-75
2023/03/03 03:46:51;;;;;;;56.30;25.13;;;3.30;83.40;;;;;;5047136;28;20204;-75
2023/03/03 03:49:17;;;;;;;53.57;24.87;;;3.30;83.30;;;;;;5048976;28;20253;-74
2023/03/03 03:51:42;;;;;;;60.23;26.33;;;3.40;82.80;;;;;;5046132;28;20244;-75
2023/03/03 03:54:08;;;;;;;63.37;27.50;;;3.40;82.70;;;;;;5048446;28;20181;-76
2023/03/03 03:56:33;;;;;;;62.83;28.20;;;3.40;82.50;;;;;;5043252;28;20288;-76
2023/03/03 03:58:59;;;;;;;63.70;28.13;;;3.50;82.20;;;;;;5046651;28;20184;-76
2023/03/03 04:01:25;;;;;;;63.70;27.00;;;3.50;81.80;;;;;;5044690;28;20300;-75
2023/03/03 04:03:51;;;;;;;72.20;27.93;;;3.50;81.70;;;;;;5045865;28;20870;-74
2023/03/03 04:06:17;;;;;;;68.17;27.10;;;3.60;81.50;;;;;;5042249;28;20556;-74
2023/03/03 04:08:42;;;;;;;63.97;26.07;;;3.70;81.20;;;;;;5044668;28;20651;-75
2023/03/03 04:11:08;;;;;;;63.40;28.60;;;3.70;80.90;;;;;;5045325;28;20221;-75
2023/03/03 04:13:34;;;;;;;74.23;28.07;;;3.80;80.30;;;;;;5044458;28;20192;-76
2023/03/03 04:16:01;;;;;;;68.57;29.63;;;3.80;80.20;;;;;;5042841;28;20213;-76
2023/03/03 04:18:26;;;;;;;66.13;28.00;;;3.90;79.90;;;;;;5043371;28;20185;-73
2023/03/03 04:20:53;;;;;;;70.87;28.93;;;3.90;79.50;;;;;;5050373;28;21019;-75
2023/03/03 04:23:19;;;;;;;68.13;29.30;;;3.90;79.20;;;;;;5050048;28;20181;-74
2023/03/03 04:25:48;;;;;;;69.40;29.60;;;3.80;79.20;;;;;;5053330;28;20415;-75
2023/03/03 04:28:15;;;;;;;69.67;27.70;;;3.90;79.50;;;;;;5053153;28;20211;-74
2023/03/03 04:30:40;;;;;;;73.30;29.20;;;3.90;79.50;;;;;;5056365;28;20435;-74
2023/03/03 04:33:06;;;;;;;73.20;29.80;;;4.00;79.30;;;;;;5060680;28;20438;-73
2023/03/03 04:35:32;;;;;;;64.27;28.40;;;4.00;78.70;;;;;;5058112;28;20188;-75
2023/03/03 04:37:57;;;;;;;65.23;28.43;;;4.00;78.70;;;;;;5050673;28;20220;-77
2023/03/03 04:40:23;;;;;;;75.53;30.33;;;4.00;78.40;;;;;;5051988;28;20219;-74
2023/03/03 04:42:49;;;;;;;83.90;29.70;;;4.00;78.30;;;;;;5052110;28;20188;-73
2023/03/03 04:45:14;;;;;;;74.17;27.87;;;4.10;78.30;;;;;;5046535;28;20641;-73
2023/03/03 04:47:40;;;;;;;70.47;29.80;;;4.00;78.00;;;;;;5052063;28;20205;-75
2023/03/03 04:50:08;;;;;;;71.47;29.00;;;4.00;78.30;;;;;;5048164;28;20193;-75
2023/03/03 04:52:33;;;;;;;67.53;28.83;;;4.00;78.40;;;;;;5047654;28;20426;-75
2023/03/03 04:54:59;;;;;;;73.07;29.20;;;4.10;78.00;;;;;;5050197;28;20432;-75
2023/03/03 04:57:25;;;;;;;70.60;29.30;;;4.00;77.60;;;;;;5049083;28;20481;-75
2023/03/03 04:59:50;;;;;;;83.07;32.03;;;4.00;77.40;;;;;;5043441;28;20205;-74
2023/03/03 05:02:16;;;;;;;74.87;29.23;;;4.00;77.60;;;;;;5047669;28;20192;-75
2023/03/03 05:04:42;;;;;;;68.67;28.40;;;4.00;77.70;;;;;;5045434;28;20191;-75
2023/03/03 05:07:08;;;;;;;69.70;29.50;;;3.90;77.80;;;;;;5046418;28;20840;-76
2023/03/03 05:09:34;;;;;;;75.73;31.07;;;3.80;77.80;;;;;;5043569;28;20184;-75
2023/03/03 05:11:59;;;;;;;75.70;29.60;;;3.80;78.30;;;;;;5029306;28;20434;-74
2023/03/03 05:14:26;;;;;;;81.30;30.27;;;3.80;78.30;;;;;;5049364;28;20613;-73
2023/03/03 05:16:52;;;;;;;70.47;28.43;;;3.80;78.30;;;;;;5049680;28;20216;-76
2023/03/03 05:19:18;;;;;;;62.97;28.77;;;3.80;78.60;;;;;;5053072;28;20429;-72
2023/03/03 05:21:44;;;;;;;72.87;29.50;;;3.80;78.30;;;;;;5029623;28;20431;-73
2023/03/03 05:24:11;;;;;;;69.67;29.67;;;3.70;78.30;;;;;;5031718;28;20651;-76
2023/03/03 05:26:37;;;;;;;75.43;30.43;;;3.70;78.30;;;;;;5049133;28;20208;-74
2023/03/03 05:29:03;;;;;;;78.73;31.37;;;3.80;78.30;;;;;;5048139;28;20416;-74
2023/03/03 05:31:29;;;;;;;69.40;30.60;;;3.80;78.40;;;;;;5054649;28;20475;-74
2023/03/03 05:33:54;;;;;;;78.37;31.57;;;3.80;78.30;;;;;;5047381;28;20185;-74
2023/03/03 05:36:20;;;;;;;74.07;29.90;;;3.80;78.30;;;;;;5053402;28;20244;-74
2023/03/03 05:38:45;;;;;;;70.87;28.40;;;3.80;78.30;;;;;;5045728;28;20208;-75
2023/03/03 05:41:11;;;;;;;71.00;29.53;;;3.80;78.10;;;;;;5066078;28;20208;-74
2023/03/03 05:43:37;;;;;;;70.33;28.77;;;3.80;77.80;;;;;;5059678;28;20189;-74
2023/03/03 05:46:02;;;;;;;63.07;26.50;;;3.90;77.70;;;;;;5059551;28;20185;-75
2023/03/03 05:48:28;;;;;;;67.40;28.37;;;3.90;77.70;;;;;;5061424;28;20188;-73
2023/03/03 05:50:57;;;;;;;71.10;28.83;;;3.90;77.30;;;;;;5056701;28;20191;-73
2023/03/03 05:53:22;;;;;;;64.93;27.87;;;3.90;77.30;;;;;;5055974;28;20184;-73
2023/03/03 05:55:48;;;;;;;65.87;27.10;;;3.90;77.10;;;;;;5059962;28;20552;-72
2023/03/03 05:58:14;;;;;;;62.07;26.90;;;3.90;76.70;;;;;;5051189;28;20680;-73
2023/03/03 06:00:39;;;;;;;69.53;26.70;;;3.80;76.20;;;;;;5047698;28;20281;-73
2023/03/03 06:03:05;;;;;;;61.03;26.03;;;3.80;76.20;;;;;;5050516;28;20192;-72
2023/03/03 06:05:30;;;;;;;69.53;27.70;;;3.80;76.20;;;;;;5052380;28;20204;-73
2023/03/03 06:07:56;;;;;;;61.17;26.30;;;3.70;76.10;;;;;;5048055;28;20709;-73
2023/03/03 06:10:21;;;;;;;68.23;28.70;;;3.70;76.40;;;;;;5051103;28;20807;-74
2023/03/03 06:12:47;;;;;;;72.10;27.30;;;3.70;76.70;;;;;;5048464;28;20600;-73
2023/03/03 06:15:13;;;;;;;67.77;28.30;;;3.70;76.70;;;;;;5049920;28;20189;-74
2023/03/03 06:17:38;;;;;;;55.67;25.37;;;3.70;76.40;;;;;;5026991;28;20211;-74
2023/03/03 06:20:05;;;;;;;57.63;24.23;;;3.70;76.80;;;;;;5049044;28;20299;-74
2023/03/03 06:22:31;;;;;;;59.20;24.13;;;3.60;76.40;;;;;;5045809;28;20819;-74
2023/03/03 06:24:56;;;;;;;58.23;25.03;;;3.50;76.20;;;;;;5048067;28;20579;-74
2023/03/03 06:27:22;;;;;;;55.07;24.37;;;3.50;76.40;;;;;;5040363;28;20209;-73
2023/03/03 06:29:47;;;;;;;64.20;25.70;;;3.40;76.40;;;;;;5032999;28;20195;-74
2023/03/03 06:32:13;;;;;;;58.70;23.40;;;3.40;76.20;;;;;;5049334;28;20207;-74
2023/03/03 06:34:39;;;;;;;65.90;24.13;;;3.40;76.10;;;;;;5021390;28;20558;-74
2023/03/03 06:37:05;;;;;;;59.93;25.83;;;3.30;75.90;;;;;;5047872;28;20478;-73
2023/03/03 06:39:30;;;;;;;58.67;23.43;;;3.30;76.20;;;;;;5047105;28;20573;-74
2023/03/03 06:41:56;;;;;;;54.17;25.17;;;3.30;76.20;;;;;;5046614;28;20189;-74
2023/03/03 06:44:21;;;;;;;53.83;23.70;;;3.30;76.40;;;;;;5045542;28;20207;-75
2023/03/03 06:46:47;;;;;;;56.03;22.70;;;3.40;76.20;;;;;;5044163;28;20201;-73
2023/03/03 06:49:13;;;;;;;57.87;23.67;;;3.40;75.90;;;;;;5048935;28;20195;-74
2023/03/03 06:51:38;;;;;;;52.90;21.97;;;3.30;75.70;;;;;;5044008;28;20231;-75
2023/03/03 06:54:17;;;;;;;52.33;22.07;;;3.30;75.40;;;;;;5042343;28;20181;-74
2023/03/03 06:56:44;;;;;;;60.63;24.47;;;3.30;75.50;;;;;;5044876;28;20197;-74
2023/03/03 06:59:18;;;;;;;58.87;23.53;;;3.30;75.40;;;;;;5050587;28;20430;-75
2023/03/03 07:01:47;;;;;;;66.83;24.67;;;3.30;75.40;;;;;;5043557;28;20871;-74
2023/03/03 07:04:29;;;;;;;63.00;26.37;;;3.40;75.70;;;;;;5049572;28;20526;-74
2023/03/03 07:07:21;;;;;;;60.77;26.20;;;3.40;75.70;;;;;;5043423;28;20462;-74
2023/03/03 07:09:50;;;;;;;54.90;25.20;;;3.50;75.50;;;;;;5045953;28;20507;-74
2023/03/03 07:12:21;;;;;;;57.50;23.70;;;3.50;75.70;;;;;;5028505;28;20419;-75
2023/03/03 07:14:54;;;;;;;62.97;24.77;;;3.60;75.20;;;;;;5048121;28;20562;-74
2023/03/03 07:17:22;;;;;;;60.23;25.50;;;3.60;75.10;;;;;;5048880;28;20536;-75
2023/03/03 07:19:48;;;;;;;53.17;22.80;;;3.70;74.90;;;;;;5049061;28;20459;-75
2023/03/03 07:22:26;;;;;;;56.33;24.37;;;3.80;74.90;;;;;;5053346;28;20488;-73
2023/03/03 07:25:02;;;;;;;55.27;25.77;;;3.70;74.00;;;;;;5049029;28;20429;-74
2023/03/03 07:27:29;;;;;;;58.80;23.03;;;3.70;74.30;;;;;;5040915;28;20450;-74
2023/03/03 07:30:18;;;;;;;41.00;20.73;;;3.70;74.80;;;;;;5048157;28;20427;-74
2023/03/03 07:32:45;;;;;;;51.87;23.50;;;3.80;74.80;;;;;;5040279;28;20510;-73
2023/03/03 07:35:27;;;;;;;57.00;23.97;;;3.90;74.00;;;;;;5029606;28;20435;-72
2023/03/03 07:37:53;;;;;;;49.80;22.23;;;4.00;73.50;;;;;;5028927;28;20458;-74
2023/03/03 07:40:37;;;;;;;56.67;24.20;;;4.00;73.60;;;;;;5048752;28;21001;-73
2023/03/03 07:43:33;;;;;;;54.30;21.70;;;3.90;72.90;;;;;;5046125;28;20187;-74
2023/03/03 07:46:10;;;;;;;53.77;23.23;;;4.00;73.20;;;;;;5048022;28;20506;-73
2023/03/03 07:48:39;;;;;;;48.37;22.20;;;3.90;73.00;;;;;;5048839;28;20453;-73
2023/03/03 07:51:16;;;;;;;58.13;23.67;;;4.00;73.30;;;;;;5050863;28;20431;-74
2023/03/03 07:53:42;;;;;;;54.53;23.70;;;4.10;73.20;;;;;;5031157;28;20418;-74
2023/03/03 07:56:26;;;;;;;51.27;23.00;;;4.20;72.90;;;;;;5047123;28;20937;-74
2023/03/03 07:58:52;;;;;;;54.23;23.00;;;4.30;72.00;;;;;;5042973;28;20188;-75
2023/03/03 08:01:39;;;;;;;55.13;23.13;;;4.30;72.40;;;;;;5046648;28;20467;-74
2023/03/03 08:04:27;;;;;;;47.77;22.70;;;4.40;71.80;;;;;;5030800;28;20187;-75
2023/03/03 08:06:55;;;;;;;55.23;22.60;;;4.40;71.80;;;;;;5049835;28;20981;-74
2023/03/03 08:09:28;;;;;;;51.77;21.53;;;4.50;71.70;;;;;;5050891;28;20423;-73
2023/03/03 08:12:00;;;;;;;45.00;21.40;;;4.50;71.60;;;;;;5055480;28;20407;-74
2023/03/03 08:14:32;;;;;;;47.67;22.07;;;4.60;71.60;;;;;;5054290;28;20944;-74
2023/03/03 08:16:58;;;;;;;52.03;23.43;;;4.70;71.10;;;;;;5052008;28;20463;-74
2023/03/03 08:19:24;;;;;;;53.47;25.10;;;4.60;71.30;;;;;;5050179;28;20481;-72
2023/03/03 08:21:50;;;;;;;52.93;22.73;;;4.70;71.70;;;;;;5055497;28;20188;-74
2023/03/03 08:24:16;;;;;;;51.90;22.63;;;4.70;71.30;;;;;;5054153;28;20427;-74
2023/03/03 08:26:41;;;;;;;51.20;24.13;;;4.80;71.40;;;;;;5042153;28;20558;-74
2023/03/03 08:29:07;;;;;;;56.37;24.73;;;4.80;70.80;;;;;;5052048;28;20234;-74
2023/03/03 08:31:32;;;;;;;49.07;23.70;;;4.80;71.30;;;;;;5049770;28;20671;-74
2023/03/03 08:33:58;;;;;;;52.53;24.00;;;4.80;71.30;;;;;;5049342;28;20188;-74
2023/03/03 08:36:24;;;;;;;60.93;24.73;;;4.70;71.30;;;;;;5046952;28;20220;-73
2023/03/03 08:38:49;;;;;;;57.30;23.07;;;4.60;72.00;;;;;;5030608;28;20454;-73
2023/03/03 08:41:15;;;;;;;53.67;24.93;;;4.50;72.00;;;;;;5051069;28;20216;-74
2023/03/03 08:43:42;;;;;;;60.70;23.37;;;4.40;72.10;;;;;;5050618;28;20180;-74
2023/03/03 08:46:09;;;;;;;55.17;24.30;;;4.30;72.60;;;;;;5050857;28;20715;-74
2023/03/03 08:48:34;;;;;;;53.63;24.20;;;4.20;73.00;;;;;;5050807;28;20423;-74
2023/03/03 08:51:00;;;;;;;51.47;24.27;;;4.20;73.20;;;;;;5054015;28;20438;-74
2023/03/03 08:53:26;;;;;;;55.10;24.00;;;4.30;73.50;;;;;;5050674;28;20191;-74
2023/03/03 08:55:52;;;;;;;51.77;22.97;;;4.40;73.50;;;;;;5052104;28;20250;-72
2023/03/03 08:58:20;;;;;;;56.20;23.83;;;4.40;73.30;;;;;;5048413;28;20474;-73
2023/03/03 09:00:46;;;;;;;59.10;25.60;;;4.40;73.20;;;;;;5053716;28;20215;-74
2023/03/03 09:03:12;;;;;;;61.10;24.37;;;4.40;73.50;;;;;;5048627;28;20419;-73
2023/03/03 09:05:38;;;;;;;55.00;25.03;;;4.50;73.50;;;;;;5049739;28;20423;-74
2023/03/03 09:08:06;;;;;;;63.17;25.13;;;4.60;73.50;;;;;;5046354;28;20201;-73
2023/03/03 09:10:31;;;;;;;53.30;24.40;;;4.70;73.00;;;;;;5048319;28;20419;-74
2023/03/03 09:13:01;;;;;;;51.20;23.13;;;4.80;72.90;;;;;;5050255;28;20431;-75
2023/03/03 09:15:29;;;;;;;58.33;24.20;;;4.90;72.60;;;;;;5033932;28;20419;-74
2023/03/03 09:18:21;;;;;;;44.60;21.37;;;4.90;72.30;;;;;;5024141;28;20532;-74
2023/03/03 09:20:51;;;;;;;44.17;23.30;;;5.00;72.10;;;;;;5050852;28;20549;-74
2023/03/03 09:23:40;;;;;;;56.40;23.80;;;5.00;72.00;;;;;;5051983;28;20419;-74
2023/03/03 09:26:38;;;;;;;53.67;24.73;;;5.00;72.30;;;;;;5050953;28;20453;-74
2023/03/03 09:29:13;;;;;;;56.87;24.53;;;5.20;71.80;;;;;;5049827;28;20509;-74
2023/03/03 09:31:46;;;;;;;50.17;22.83;;;5.40;71.40;;;;;;5035717;28;20433;-73
2023/03/03 09:34:30;;;;;;;55.03;24.97;;;5.60;70.80;;;;;;5051033;28;20431;-74
2023/03/03 09:36:58;;;;;;;52.13;24.00;;;5.70;70.70;;;;;;5042513;28;21009;-74
2023/03/03 09:39:28;;;;;;;52.40;25.03;;;5.90;70.50;;;;;;5052947;28;20478;-73
2023/03/03 09:42:11;;;;;;;46.50;23.17;;;6.30;70.10;;;;;;5032600;28;20935;-74
2023/03/03 09:44:54;;;;;;;56.07;24.60;;;6.60;68.90;;;;;;5049929;28;20437;-74
2023/03/03 09:47:32;;;;;;;51.73;23.40;;;6.90;67.70;;;;;;5027773;28;20458;-74
2023/03/03 09:50:11;;;;;;;51.37;22.73;;;7.00;67.20;;;;;;5048094;28;20430;-72
2023/03/03 09:52:52;;;;;;;51.37;23.80;;;7.20;66.90;;;;;;5042848;28;20520;-74
2023/03/03 09:55:20;;;;;;;58.20;24.70;;;7.10;66.00;;;;;;5048081;28;20419;-74
2023/03/03 09:57:55;;;;;;;50.57;23.00;;;7.00;66.30;;;;;;5028029;28;20463;-75
2023/03/03 10:00:26;;;;;;;48.53;22.60;;;7.00;66.40;;;;;;5046606;28;20827;-74
2023/03/03 10:03:22;;;;;;;54.27;24.63;;;7.00;66.40;;;;;;5046934;28;20416;-73
2023/03/03 10:05:57;;;;;;;55.83;24.20;;;7.10;66.30;;;;;;5029282;28;20510;-72
2023/03/03 10:08:23;;;;;;;54.50;23.60;;;7.10;66.10;;;;;;5046713;28;20488;-74
2023/03/03 10:10:59;;;;;;;53.93;25.13;;;7.10;66.40;;;;;;5031873;28;20435;-74
2023/03/03 10:13:53;;;;;;;54.67;24.53;;;7.00;66.40;;;;;;5051897;28;20191;-74
2023/03/03 10:16:44;;;;;;;48.10;23.60;;;7.00;66.60;;;;;;5046491;28;20475;-74
2023/03/03 10:19:35;;;;;;;46.77;23.37;;;7.10;66.70;;;;;;5046612;28;20423;-75
2023/03/03 10:22:19;;;;;;;51.00;22.60;;;7.30;65.80;;;;;;5047757;28;20926;-74
2023/03/03 10:25:03;;;;;;;48.10;23.37;;;7.20;65.60;;;;;;5041667;28;20419;-74
2023/03/03 10:27:54;;;;;;;52.73;23.73;;;7.30;66.10;;;;;;5028320;28;20450;-75
2023/03/03 10:30:57;;;;;;;52.63;22.90;;;7.50;65.70;;;;;;5046694;28;20416;-74
2023/03/03 10:33:27;;;;;;;50.00;23.17;;;7.70;65.10;;;;;;5044117;28;20423;-75
2023/03/03 10:36:07;;;;;;;49.30;26.13;;;7.70;64.80;;;;;;5048513;28;20836;-74
2023/03/03 10:38:45;;;;;;;49.63;23.80;;;7.60;65.30;;;;;;5050782;28;21091;-74
2023/03/03 10:41:23;;;;;;;50.77;24.20;;;7.60;65.00;;;;;;5049923;28;20541;-74
2023/03/03 10:44:24;;;;;;;53.27;23.97;;;7.60;65.00;;;;;;5047844;28;20510;-73
2023/03/03 10:47:05;;;;;;;47.90;24.60;;;7.70;65.10;;;;;;5045295;28;20455;-75
2023/03/03 10:50:04;;;;;;;53.23;25.63;;;7.90;64.70;;;;;;5050983;28;20414;-73
2023/03/03 10:52:37;;;;;;;53.63;25.57;;;7.90;64.50;;;;;;5046042;28;20414;-75
2023/03/03 10:55:21;;;;;;;49.63;25.37;;;7.90;64.70;;;;;;5045054;28;20412;-75
2023/03/03 10:57:53;;;;;;;53.63;25.10;;;8.20;64.10;;;;;;5038760;28;20462;-73
2023/03/03 11:00:21;;;;;;;58.43;25.63;;;8.20;64.10;;;;;;5044674;28;20464;-75
2023/03/03 11:03:22;;;;;;;54.13;25.03;;;8.30;63.90;;;;;;5050891;28;20415;-74
2023/03/03 11:06:12;;;;;;;53.10;26.27;;;8.30;63.40;;;;;;5032855;28;20423;-74
2023/03/03 11:08:55;;;;;;;47.80;23.67;;;8.20;63.40;;;;;;5045500;28;20491;-75
2023/03/03 11:11:36;;;;;;;52.10;24.37;;;8.00;63.80;;;;;;5051205;28;20415;-74
2023/03/03 11:14:23;;;;;;;55.03;24.27;;;8.00;64.10;;;;;;5049868;28;20415;-75
2023/03/03 11:16:54;;;;;;;55.03;25.77;;;8.20;63.90;;;;;;5042213;28;20467;-75
2023/03/03 11:19:51;;;;;;;52.47;25.23;;;8.20;63.50;;;;;;5045240;28;20420;-73
2023/03/03 11:22:32;;;;;;;55.33;26.80;;;8.20;63.70;;;;;;5046304;28;20783;-74
2023/03/03 11:25:09;;;;;;;57.77;25.20;;;8.20;64.40;;;;;;5043444;28;20409;-74
2023/03/03 11:28:00;;;;;;;53.53;24.60;;;8.20;63.70;;;;;;5044840;28;20568;-73
2023/03/03 11:30:39;;;;;;;56.83;26.57;;;8.20;63.90;;;;;;5045958;28;21306;-74
2023/03/03 11:33:21;;;;;;;53.10;24.77;;;8.20;64.10;;;;;;5043531;28;20932;-75
2023/03/03 11:36:05;;;;;;;54.73;26.23;;;8.20;64.40;;;;;;5045991;28;20483;-74
2023/03/03 11:38:49;;;;;;;54.73;25.50;;;8.20;64.50;;;;;;5046332;28;20936;-74
2023/03/03 11:41:42;;;;;;;61.67;27.13;;;8.20;64.40;;;;;;5050939;28;20473;-74
2023/03/03 11:44:22;;;;;;;54.23;25.47;;;8.30;64.20;;;;;;5048210;28;20427;-75
2023/03/03 11:46:54;;;;;;;52.60;25.40;;;8.40;63.90;;;;;;5024247;28;20555;-75
2023/03/03 11:49:26;;;;;;;52.30;24.13;;;8.40;63.20;;;;;;5048593;28;21099;-74
2023/03/03 11:52:35;;;;;;;55.30;26.83;;;8.60;63.10;;;;;;5046417;28;20598;-74
2023/03/03 11:55:06;;;;;;;50.53;24.73;;;8.90;61.70;;;;;;5050743;28;20441;-74
2023/03/03 11:57:34;;;;;;;48.63;25.20;;;8.60;61.70;;;;;;5040457;28;20458;-74
2023/03/03 12:00:30;;;;;;;54.17;25.50;;;8.30;62.50;;;;;;5049021;28;20980;-73
2023/03/03 12:03:34;;;;;;;49.50;23.13;;;8.20;63.10;;;;;;5023515;28;20517;-74
2023/03/03 12:06:14;;;;;;;54.37;25.07;;;8.50;62.60;;;;;;5044969;28;20419;-74
2023/03/03 12:08:40;;;;;;;50.40;24.73;;;8.70;62.00;;;;;;5042290;28;20423;-75
2023/03/03 12:11:26;;;;;;;50.13;23.90;;;8.90;61.50;;;;;;5047001;28;20434;-74
2023/03/03 12:14:18;;;;;;;45.27;23.40;;;9.10;60.90;;;;;;5044942;28;20192;-73
2023/03/03 12:16:53;;;;;;;44.63;22.87;;;9.40;59.60;;;;;;5038545;28;20474;-73
2023/03/03 12:19:33;;;;;;;52.07;24.40;;;10.00;58.70;;;;;;5027296;28;20448;-72
2023/03/03 12:22:22;;;;;;;48.80;24.10;;;10.00;57.70;;;;;;5042982;28;20427;-75
2023/03/03 12:25:18;;;;;;;46.63;23.43;;;10.10;58.00;;;;;;5043492;28;20434;-74
2023/03/03 12:28:07;;;;;;;57.63;25.87;;;10.30;56.90;;;;;;5035765;28;20451;-75
2023/03/03 12:31:34;;;;;;;52.40;24.27;;;10.10;56.60;;;;;;5030130;28;20427;-73
2023/03/03 12:34:08;;;;;;;46.10;23.50;;;9.90;57.60;;;;;;4963161;28;20438;-75
2023/03/03 12:36:39;;;;;;;45.07;24.70;;;9.90;57.80;;;;;;4984720;28;20992;-75
2023/03/03 12:39:07;;;;;;;43.77;23.13;;;9.80;57.40;;;;;;4982004;28;20470;-74
2023/03/03 12:41:58;;;;;;;59.97;24.13;;;10.00;57.40;;;;;;4986618;28;20569;-74
2023/03/03 12:44:37;;;;;;;47.90;22.90;;;9.90;56.80;;;;;;4988504;28;21223;-74
2023/03/03 12:47:20;;;;;;;46.47;23.20;;;9.80;57.20;;;;;;4984602;28;20560;-75
2023/03/03 12:50:16;;;;;;;49.10;24.10;;;9.80;57.40;;;;;;4983245;28;20436;-73
2023/03/03 12:53:00;;;;;;;47.27;22.47;;;9.90;57.20;;;;;;4983987;28;20824;-74
2023/03/03 12:55:50;;;;;;;40.10;21.67;;;9.70;57.40;;;;;;4985704;28;20437;-75
2023/03/03 12:58:34;;;;;;;44.07;22.70;;;9.90;57.60;;;;;;4980825;28;20484;-74
2023/03/03 13:01:29;;;;;;;43.80;22.70;;;10.00;57.00;;;;;;4985738;28;20491;-74